Time;durP1;ratioP1;P1;durP2;ratioP2;P2;SDS_P1;SDS_P2;PMS_P1;PMS_P2;Temp;Humidity;BMP_temperature;BMP_pressure;BME280_temperature;BME280_humidity;BME280_pressure;Samples;Min_cycle;Max_cycle;Signal;HPM_P1;HPM_P2
2022/12/17 13:06:49;;;;;;;92.07;26.63;;;0.60;99.90;;;;;;5135201;27;20090;-75
2022/12/17 13:09:19;;;;;;;97.75;26.55;;;0.60;99.90;;;;;;5134217;27;20129;-74
2022/12/17 13:11:52;;;;;;;94.70;28.35;;;0.60;99.90;;;;;;5134389;27;20403;-77
2022/12/17 13:14:25;;;;;;;85.28;24.25;;;0.50;99.90;;;;;;5135089;27;20062;-76
2022/12/17 13:16:56;;;;;;;92.00;26.63;;;0.60;99.90;;;;;;5134269;27;20051;-76
2022/12/17 13:19:38;;;;;;;96.20;26.00;;;0.50;99.90;;;;;;5134597;27;20462;-76
2022/12/17 13:22:13;;;;;;;94.78;25.80;;;0.60;99.90;;;;;;5135090;27;20057;-75
2022/12/17 13:24:40;;;;;;;93.72;25.80;;;0.60;99.90;;;;;;5133997;27;20062;-76
2022/12/17 13:27:26;;;;;;;101.97;26.17;;;0.60;99.90;;;;;;5134352;27;20054;-74
2022/12/17 13:29:51;;;;;;;92.75;24.55;;;0.60;99.90;;;;;;5133498;27;20106;-75
2022/12/17 13:32:37;;;;;;;94.90;26.58;;;0.60;99.90;;;;;;5134313;27;20463;-75
2022/12/17 13:35:29;;;;;;;104.43;27.67;;;0.60;99.90;;;;;;5115974;27;20055;-76
2022/12/17 13:38:10;;;;;;;100.10;29.60;;;0.60;99.90;;;;;;5116378;27;20047;-74
2022/12/17 13:40:38;;;;;;;95.80;29.42;;;0.60;99.90;;;;;;5134419;27;20108;-75
2022/12/17 13:43:04;;;;;;;80.10;21.17;;;0.40;99.90;;;;;;5115460;27;20046;-74
2022/12/17 13:45:33;;;;;;;96.15;25.65;;;0.50;99.90;;;;;;5133961;27;20053;-79
2022/12/17 13:47:59;;;;;;;107.32;28.33;;;0.30;99.90;;;;;;5133563;27;20514;-75
2022/12/17 13:50:27;;;;;;;99.75;27.35;;;0.40;99.90;;;;;;5133676;27;20085;-75
2022/12/17 13:52:52;;;;;;;114.75;31.30;;;0.30;99.90;;;;;;5133554;27;20118;-74
2022/12/17 13:55:24;;;;;;;101.85;32.05;;;0.30;99.90;;;;;;5134281;27;20043;-76
2022/12/17 13:57:51;;;;;;;103.10;29.02;;;0.20;99.90;;;;;;5134684;27;20512;-77
2022/12/17 14:00:20;;;;;;;92.53;24.95;;;0.10;99.90;;;;;;5134259;27;20043;-73
2022/12/17 14:02:47;;;;;;;99.40;27.40;;;0.10;99.90;;;;;;5133728;28;20047;-74
2022/12/17 14:05:43;;;;;;;96.60;26.10;;;0.10;99.90;;;;;;5099046;28;20130;-75
2022/12/17 14:08:14;;;;;;;92.28;24.00;;;0.10;99.90;;;;;;5081796;28;20097;-73
2022/12/17 14:12:20;;;;;;;91.93;24.35;;;0.10;99.90;;;;;;5133401;28;20051;-76
2022/12/17 14:13:39;;;;;;;94.45;23.48;;;0.10;99.90;;;;;;5133024;28;20440;-76
2022/12/17 14:16:05;;;;;;;94.43;24.10;;;0.00;99.90;;;;;;5118563;27;20122;-73
2022/12/17 14:18:30;;;;;;;94.22;24.58;;;0.00;99.90;;;;;;5102434;27;20047;-75
2022/12/17 14:20:56;;;;;;;90.82;23.35;;;0.10;99.90;;;;;;5102407;27;20504;-75
2022/12/17 14:23:25;;;;;;;96.43;24.70;;;0.00;99.90;;;;;;5120035;27;20047;-75
2022/12/17 14:25:51;;;;;;;87.07;22.25;;;-0.10;99.90;;;;;;5137831;27;20047;-75
2022/12/17 14:28:29;;;;;;;88.72;22.25;;;-0.10;99.90;;;;;;5085410;27;20070;-73
2022/12/17 14:31:13;;;;;;;82.40;21.45;;;-0.10;99.90;;;;;;5138633;27;20162;-75
2022/12/17 14:33:40;;;;;;;77.15;21.02;;;-0.10;99.90;;;;;;5137690;27;20486;-75
2022/12/17 14:36:22;;;;;;;95.70;22.38;;;-0.10;99.90;;;;;;5119125;27;20161;-74
2022/12/17 14:38:58;;;;;;;84.22;22.20;;;-0.20;99.90;;;;;;5120615;27;20083;-73
2022/12/17 14:44:23;;;;;;;86.40;22.38;;;-0.20;99.90;;;;;;5144646;27;20126;-74
2022/12/17 14:46:52;;;;;;;94.35;22.35;;;-0.20;99.90;;;;;;5126166;27;20070;-74
2022/12/17 14:49:20;;;;;;;81.50;21.88;;;-0.20;99.90;;;;;;5142619;27;20394;-72
2022/12/17 14:51:48;;;;;;;95.35;25.00;;;-0.30;99.90;;;;;;5140461;27;20078;-73
2022/12/17 14:54:19;;;;;;;83.95;21.33;;;-0.40;99.90;;;;;;5121931;27;20182;-73
2022/12/17 14:56:48;;;;;;;98.68;28.45;;;-0.40;99.90;;;;;;5102741;27;20055;-74
2022/12/17 14:59:29;;;;;;;84.55;23.00;;;-0.50;99.90;;;;;;5136864;27;20130;-74
2022/12/17 15:01:55;;;;;;;95.03;22.88;;;-0.50;99.90;;;;;;5136486;27;20039;-73
2022/12/17 15:04:22;;;;;;;75.40;20.15;;;-0.50;99.90;;;;;;5101354;27;20050;-73
2022/12/17 15:06:49;;;;;;;81.95;21.88;;;-0.60;99.90;;;;;;5136709;27;20062;-73
2022/12/17 15:09:15;;;;;;;86.78;22.20;;;-0.60;99.90;;;;;;5118148;27;20501;-73
2022/12/17 15:11:40;;;;;;;90.15;22.73;;;-0.60;99.90;;;;;;5118965;27;20047;-73
2022/12/17 15:14:06;;;;;;;80.93;20.70;;;-0.60;99.90;;;;;;5118220;27;20042;-73
2022/12/17 15:16:32;;;;;;;87.03;21.63;;;-0.60;99.90;;;;;;5118332;27;20043;-73
2022/12/17 15:18:59;;;;;;;87.05;22.30;;;-0.70;99.90;;;;;;5136428;27;20100;-72
2022/12/17 15:21:25;;;;;;;75.70;19.75;;;-0.70;99.90;;;;;;5101245;27;20126;-73
2022/12/17 15:23:51;;;;;;;88.13;22.20;;;-0.80;99.90;;;;;;5118639;27;20043;-73
2022/12/17 15:26:18;;;;;;;80.28;20.90;;;-0.80;99.90;;;;;;5135613;27;20490;-74
2022/12/17 15:28:44;;;;;;;76.70;19.45;;;-0.90;99.90;;;;;;5101280;27;20043;-74
2022/12/17 15:31:12;;;;;;;84.07;20.30;;;-0.90;99.90;;;;;;5136215;27;20051;-74
2022/12/17 15:33:38;;;;;;;76.43;19.88;;;-0.80;99.90;;;;;;5137005;27;20041;-75
2022/12/17 15:36:04;;;;;;;82.30;22.02;;;-0.90;99.90;;;;;;5136071;27;20051;-75
2022/12/17 15:38:30;;;;;;;91.57;21.80;;;-0.90;99.90;;;;;;5101639;27;20043;-72
2022/12/17 15:40:59;;;;;;;74.57;19.35;;;-0.90;99.90;;;;;;5117628;27;20058;-73
2022/12/17 15:43:25;;;;;;;77.63;21.05;;;-1.00;99.90;;;;;;5117926;27;20047;-73
2022/12/17 15:45:52;;;;;;;84.63;21.25;;;-0.90;99.90;;;;;;5117683;27;20049;-73
2022/12/17 15:48:20;;;;;;;91.85;20.98;;;-0.90;99.90;;;;;;5117985;27;20055;-73
2022/12/17 15:50:47;;;;;;;77.05;20.50;;;-1.00;99.90;;;;;;5117494;27;20103;-73
2022/12/17 15:53:13;;;;;;;82.38;20.23;;;-0.90;99.90;;;;;;5100364;27;20042;-73
2022/12/17 15:55:39;;;;;;;90.82;23.88;;;-1.00;99.90;;;;;;5117867;27;20406;-75
2022/12/17 15:58:06;;;;;;;89.07;23.02;;;-1.10;99.90;;;;;;5117927;27;20395;-73
2022/12/17 16:00:32;;;;;;;78.80;19.37;;;-1.20;99.90;;;;;;5136121;27;20047;-74
2022/12/17 16:02:58;;;;;;;89.40;24.05;;;-1.20;99.90;;;;;;5135626;27;20047;-74
2022/12/17 16:05:23;;;;;;;81.03;21.10;;;-1.20;99.90;;;;;;5100442;27;20171;-72
2022/12/17 16:07:50;;;;;;;94.70;25.40;;;-1.20;99.90;;;;;;5135534;27;20047;-72
2022/12/17 16:10:17;;;;;;;76.60;19.83;;;-1.30;99.90;;;;;;5135495;27;20047;-75
2022/12/17 16:12:43;;;;;;;70.78;18.33;;;-1.20;99.90;;;;;;5135593;27;20391;-72
2022/12/17 16:15:10;;;;;;;79.80;21.52;;;-1.20;99.90;;;;;;5135395;27;20062;-72
2022/12/17 16:17:36;;;;;;;88.35;21.75;;;-1.30;99.90;;;;;;5135434;27;20095;-71
2022/12/17 16:20:05;;;;;;;92.82;22.98;;;-1.30;99.90;;;;;;5135307;27;20125;-71
2022/12/17 16:22:30;;;;;;;94.55;22.92;;;-1.30;99.90;;;;;;5135744;27;20127;-73
2022/12/17 16:24:56;;;;;;;84.60;23.30;;;-1.30;99.90;;;;;;5134973;27;20682;-72
2022/12/17 16:27:22;;;;;;;81.13;20.38;;;-1.30;99.90;;;;;;5135218;27;20049;-73
2022/12/17 16:29:48;;;;;;;92.38;22.77;;;-1.30;99.90;;;;;;5099449;27;20087;-76
2022/12/17 16:32:15;;;;;;;93.65;23.67;;;-1.30;99.90;;;;;;5135044;27;20098;-74
2022/12/17 16:34:42;;;;;;;78.65;20.17;;;-1.30;99.90;;;;;;5135328;27;20047;-72
2022/12/17 16:37:07;;;;;;;77.75;19.98;;;-1.30;99.90;;;;;;5134716;27;20100;-73
2022/12/17 16:39:38;;;;;;;73.85;20.00;;;-1.30;99.90;;;;;;5134937;27;20399;-73
2022/12/17 16:42:04;;;;;;;86.80;22.70;;;-1.30;99.90;;;;;;5117163;27;20162;-72
2022/12/17 16:44:30;;;;;;;97.43;24.00;;;-1.30;99.90;;;;;;5116241;27;20055;-74
2022/12/17 16:46:56;;;;;;;94.43;22.30;;;-1.20;99.90;;;;;;5134937;27;20134;-73
2022/12/17 16:49:23;;;;;;;79.13;20.20;;;-1.20;99.90;;;;;;5135064;27;20431;-73
2022/12/17 16:51:53;;;;;;;85.22;21.73;;;-1.20;99.90;;;;;;5134513;27;20606;-73
2022/12/17 16:54:26;;;;;;;85.40;20.23;;;-1.30;99.90;;;;;;5099366;27;20053;-72
2022/12/17 16:56:53;;;;;;;89.13;21.48;;;-1.30;99.90;;;;;;5116665;27;20101;-75
2022/12/17 16:59:19;;;;;;;89.15;22.02;;;-1.20;99.90;;;;;;5134497;27;20058;-73
2022/12/17 17:01:47;;;;;;;93.18;24.63;;;-1.20;99.90;;;;;;5115709;27;20043;-73
2022/12/17 17:04:15;;;;;;;89.03;24.23;;;-1.20;99.90;;;;;;5116115;27;20047;-74
2022/12/17 17:06:44;;;;;;;81.35;21.40;;;-1.20;99.90;;;;;;5116070;27;20098;-73
2022/12/17 17:09:11;;;;;;;84.00;22.60;;;-1.30;99.90;;;;;;5134169;27;20054;-73
2022/12/17 17:11:36;;;;;;;85.07;22.70;;;-1.20;99.90;;;;;;5134165;27;20039;-73
2022/12/17 17:14:03;;;;;;;83.32;22.08;;;-1.30;99.90;;;;;;5134057;27;20061;-73
2022/12/17 17:16:29;;;;;;;93.45;24.65;;;-1.30;99.90;;;;;;5116401;27;20051;-73
2022/12/17 17:18:55;;;;;;;86.10;23.13;;;-1.30;99.90;;;;;;5134619;27;20470;-73
2022/12/17 17:21:33;;;;;;;84.10;21.67;;;-1.30;99.90;;;;;;5099136;27;20047;-73
2022/12/17 17:24:10;;;;;;;87.60;23.50;;;-1.30;99.90;;;;;;5134344;27;20122;-75
2022/12/17 17:26:36;;;;;;;87.93;25.13;;;-1.20;99.90;;;;;;5116200;27;20047;-73
2022/12/17 17:29:03;;;;;;;95.70;25.55;;;-1.30;99.90;;;;;;5133662;27;20054;-74
2022/12/17 17:31:29;;;;;;;94.18;27.25;;;-1.30;99.90;;;;;;5134528;27;20055;-73
2022/12/17 17:33:55;;;;;;;90.97;23.85;;;-1.40;99.90;;;;;;5115901;27;20054;-73
2022/12/17 17:36:28;;;;;;;88.68;25.85;;;-1.40;99.90;;;;;;5115982;27;20082;-73
2022/12/17 17:38:57;;;;;;;85.80;25.63;;;-1.40;99.90;;;;;;5134787;27;20126;-72
2022/12/17 17:41:24;;;;;;;96.60;30.02;;;-1.50;99.90;;;;;;5134224;27;20052;-73
2022/12/17 17:44:06;;;;;;;100.05;30.23;;;-1.40;99.90;;;;;;5115557;27;20509;-72
2022/12/17 17:46:33;;;;;;;81.28;24.50;;;-1.40;99.90;;;;;;5133552;27;20043;-72
2022/12/17 17:49:00;;;;;;;96.70;29.02;;;-1.40;99.90;;;;;;5098204;28;20490;-72
2022/12/17 17:51:32;;;;;;;75.97;23.23;;;-1.50;99.90;;;;;;5134086;27;20134;-73
2022/12/17 17:53:59;;;;;;;84.63;25.85;;;-1.60;99.90;;;;;;5134333;27;20127;-76
2022/12/17 17:56:33;;;;;;;83.22;25.90;;;-1.70;99.90;;;;;;5133325;27;20486;-72
2022/12/17 17:59:01;;;;;;;69.65;21.27;;;-1.60;99.90;;;;;;5115490;28;20085;-74
2022/12/17 18:01:30;;;;;;;83.68;27.10;;;-1.60;99.90;;;;;;5133747;27;20180;-73
2022/12/17 18:04:02;;;;;;;71.95;21.95;;;-1.70;99.90;;;;;;5134148;27;20050;-75
2022/12/17 18:06:28;;;;;;;76.72;23.17;;;-1.70;99.90;;;;;;5115316;28;20043;-74
2022/12/17 18:08:58;;;;;;;74.15;23.40;;;-1.70;99.90;;;;;;5115196;28;20091;-74
2022/12/17 18:11:26;;;;;;;82.13;25.33;;;-1.70;99.90;;;;;;5115223;28;20047;-74
2022/12/17 18:13:55;;;;;;;85.45;24.38;;;-1.70;99.90;;;;;;5098050;28;20051;-75
2022/12/17 18:16:34;;;;;;;82.22;25.77;;;-1.80;99.90;;;;;;5133499;28;20126;-73
2022/12/17 18:19:02;;;;;;;76.25;24.67;;;-1.90;99.90;;;;;;5133926;28;20458;-78
2022/12/17 18:21:29;;;;;;;80.05;25.08;;;-1.90;99.90;;;;;;5098381;28;20051;-73
2022/12/17 18:23:58;;;;;;;80.55;25.42;;;-1.90;99.90;;;;;;5115062;28;20058;-73
2022/12/17 18:26:25;;;;;;;98.07;26.92;;;-1.90;99.90;;;;;;5133123;28;20043;-72
2022/12/17 18:28:51;;;;;;;82.50;22.75;;;-1.80;99.90;;;;;;5115070;28;20176;-71
2022/12/17 18:31:22;;;;;;;81.22;25.08;;;-1.80;99.90;;;;;;5114404;28;20459;-70
2022/12/17 18:33:57;;;;;;;89.35;25.00;;;-1.80;99.90;;;;;;5115580;28;20489;-72
2022/12/17 18:36:26;;;;;;;88.10;26.90;;;-1.80;99.90;;;;;;5115250;28;20047;-73
2022/12/17 18:38:57;;;;;;;83.53;24.92;;;-1.80;99.90;;;;;;5133259;28;20039;-74
2022/12/17 18:44:09;;;;;;;86.15;23.98;;;-1.80;99.90;;;;;;5132746;28;20058;-72
2022/12/17 18:46:35;;;;;;;85.73;26.03;;;-1.70;99.90;;;;;;5114717;28;20371;-73
2022/12/17 18:49:04;;;;;;;89.13;27.50;;;-1.70;99.90;;;;;;5114554;28;20291;-73
2022/12/17 18:51:30;;;;;;;98.20;27.95;;;-1.70;99.90;;;;;;5132673;28;20047;-74
2022/12/17 18:54:01;;;;;;;100.05;28.73;;;-1.70;99.90;;;;;;5133609;28;20095;-74
2022/12/17 18:56:28;;;;;;;91.93;26.90;;;-1.70;99.90;;;;;;5115107;28;20124;-73
2022/12/17 18:58:54;;;;;;;;;;;-1.60;99.90;;;;;;5133513;28;20049;-72
2022/12/17 19:01:29;;;;;;;88.65;27.65;;;-1.60;99.90;;;;;;5133328;27;19978;-72
2022/12/17 19:03:55;;;;;;;92.53;29.00;;;-1.60;99.90;;;;;;5137347;27;20115;-72
2022/12/17 19:06:23;;;;;;;96.15;27.40;;;-1.60;99.90;;;;;;5137299;27;20055;-73
2022/12/17 19:08:49;;;;;;;93.47;26.48;;;-1.60;99.90;;;;;;5118427;27;20480;-73
2022/12/17 19:11:19;;;;;;;91.17;26.00;;;-1.60;99.90;;;;;;5136433;27;20116;-72
2022/12/17 19:13:45;;;;;;;94.80;28.45;;;-1.60;99.90;;;;;;5118162;27;20276;-73
2022/12/17 19:16:23;;;;;;;90.22;27.63;;;-1.70;99.90;;;;;;5084709;27;20068;-73
2022/12/17 19:18:52;;;;;;;87.95;26.83;;;-1.70;99.90;;;;;;5119133;27;20047;-73
2022/12/17 19:21:18;;;;;;;97.10;28.83;;;-1.80;99.90;;;;;;5118102;27;20043;-74
2022/12/17 19:23:45;;;;;;;82.80;24.38;;;-1.80;99.90;;;;;;5120652;27;20047;-75
2022/12/17 19:26:17;;;;;;;93.82;26.42;;;-1.80;99.90;;;;;;5139470;27;20047;-74
2022/12/17 19:28:45;;;;;;;85.30;23.63;;;-1.80;99.90;;;;;;5120510;27;20054;-74
2022/12/17 19:31:12;;;;;;;89.25;26.15;;;-1.80;99.90;;;;;;5138519;27;20058;-73
2022/12/17 19:33:38;;;;;;;84.88;25.77;;;-1.80;99.90;;;;;;5137953;27;20076;-74
2022/12/17 19:36:13;;;;;;;65.28;20.27;;;-1.90;99.90;;;;;;5135752;27;20428;-74
2022/12/17 19:38:40;;;;;;;84.88;24.00;;;-1.80;99.90;;;;;;5117681;27;20054;-73
2022/12/17 19:41:08;;;;;;;83.60;24.23;;;-1.90;99.90;;;;;;5117436;27;20054;-75
2022/12/17 19:43:35;;;;;;;84.57;23.92;;;-1.90;99.90;;;;;;5117270;27;20047;-76
2022/12/17 19:46:23;;;;;;;83.97;25.05;;;-1.90;99.90;;;;;;5135726;27;20075;-74
2022/12/17 19:48:50;;;;;;;80.93;23.00;;;-2.00;99.90;;;;;;5117965;27;20123;-74
2022/12/17 19:51:18;;;;;;;82.23;23.27;;;-1.90;99.90;;;;;;5100575;27;20070;-76
2022/12/17 19:53:46;;;;;;;80.45;25.77;;;-1.90;99.90;;;;;;5135791;27;20281;-75
2022/12/17 19:56:29;;;;;;;76.97;22.60;;;-2.00;99.90;;;;;;5116907;27;20479;-78
2022/12/17 19:58:57;;;;;;;87.05;22.98;;;-2.00;99.90;;;;;;5135961;27;20043;-73
2022/12/17 20:01:39;;;;;;;80.82;22.88;;;-2.10;99.90;;;;;;5118289;27;20047;-72
2022/12/17 20:04:05;;;;;;;82.28;23.60;;;-2.10;99.90;;;;;;5138515;27;20047;-75
2022/12/17 20:06:32;;;;;;;80.25;22.58;;;-2.20;99.90;;;;;;5136650;27;20047;-74
2022/12/17 20:08:58;;;;;;;;;;;-2.20;99.90;;;;;;5118484;27;20083;-73
2022/12/17 20:11:34;;;;;;;71.75;21.83;;;-2.20;99.90;;;;;;5135685;27;20321;-73
2022/12/17 20:14:01;;;;;;;82.75;23.65;;;-2.10;99.90;;;;;;5118005;27;20155;-72
2022/12/17 20:16:28;;;;;;;82.85;23.83;;;-2.20;99.90;;;;;;5117235;27;20043;-71
2022/12/17 20:18:54;;;;;;;;;;;-2.20;99.90;;;;;;5135855;27;20047;-72
2022/12/17 20:21:20;;;;;;;87.38;22.60;;;-2.10;99.90;;;;;;5117401;27;19919;-73
2022/12/17 20:23:47;;;;;;;87.68;24.90;;;-2.20;99.90;;;;;;5099569;27;20122;-73
2022/12/17 20:26:13;;;;;;;87.65;23.92;;;-2.10;99.90;;;;;;5134816;27;20039;-72
2022/12/17 20:28:39;;;;;;;90.97;26.10;;;-2.10;99.90;;;;;;5100089;27;20130;-73
2022/12/17 20:31:05;;;;;;;88.85;26.95;;;-2.10;99.90;;;;;;5135304;27;20139;-73
2022/12/17 20:33:31;;;;;;;100.33;29.47;;;-2.00;99.90;;;;;;5116214;27;20054;-73
2022/12/17 20:36:15;;;;;;;90.05;25.70;;;-2.00;99.90;;;;;;5134616;27;20122;-74
2022/12/17 20:38:41;;;;;;;87.20;24.13;;;-2.00;99.90;;;;;;5134450;27;20046;-71
2022/12/17 20:41:16;;;;;;;97.43;26.20;;;-2.00;99.90;;;;;;5099315;27;20071;-75
2022/12/17 20:43:42;;;;;;;91.68;26.10;;;-2.00;99.90;;;;;;5116889;27;20043;-74
2022/12/17 20:46:09;;;;;;;96.60;26.67;;;-2.00;99.90;;;;;;5116792;27;20047;-74
2022/12/17 20:48:38;;;;;;;83.07;23.58;;;-2.00;99.90;;;;;;5134619;27;20053;-73
2022/12/17 20:51:09;;;;;;;86.53;22.70;;;-1.90;99.90;;;;;;5134578;27;20086;-73
2022/12/17 20:53:37;;;;;;;77.28;22.40;;;-1.90;99.90;;;;;;5116065;27;20055;-73
2022/12/17 20:56:05;;;;;;;77.47;21.73;;;-2.00;99.90;;;;;;5134376;27;20114;-73
2022/12/17 20:58:31;;;;;;;85.93;23.38;;;-2.10;99.90;;;;;;5134791;27;20114;-73
2022/12/17 21:01:06;;;;;;;84.53;22.92;;;-2.20;99.90;;;;;;5134560;27;20083;-75
2022/12/17 21:03:32;;;;;;;71.32;20.35;;;-2.20;99.90;;;;;;5099262;27;20055;-73
2022/12/17 21:06:06;;;;;;;78.60;21.77;;;-2.10;99.90;;;;;;5134411;27;20050;-74
2022/12/17 21:08:32;;;;;;;84.13;22.73;;;-2.30;99.90;;;;;;5116066;27;20050;-73
2022/12/17 21:10:57;;;;;;;79.13;21.75;;;-2.50;99.90;;;;;;5134172;27;20058;-74
2022/12/17 21:13:29;;;;;;;82.30;22.02;;;-2.50;99.90;;;;;;5134079;27;20047;-74
2022/12/17 21:15:57;;;;;;;97.10;26.85;;;-2.40;99.90;;;;;;5134284;27;20039;-73
2022/12/17 21:18:24;;;;;;;91.78;22.88;;;-2.50;99.90;;;;;;5116642;27;20054;-74
2022/12/17 21:21:11;;;;;;;84.07;20.73;;;-2.50;99.90;;;;;;5134145;27;20050;-72
2022/12/17 21:23:37;;;;;;;;;;;-2.40;99.90;;;;;;5134200;27;20091;-73
2022/12/17 21:26:11;;;;;;;79.10;20.20;;;-2.40;99.90;;;;;;5115176;27;19975;-74
2022/12/17 21:28:38;;;;;;;75.05;19.88;;;-2.40;99.90;;;;;;5133819;27;20059;-73
2022/12/17 21:31:04;;;;;;;76.22;20.38;;;-2.40;99.90;;;;;;5094472;28;20124;-73
2022/12/17 21:33:30;;;;;;;93.43;23.35;;;-2.40;99.90;;;;;;5113786;28;20040;-73
2022/12/17 21:36:04;;;;;;;85.87;20.93;;;-2.40;99.90;;;;;;5113179;28;20043;-72
2022/12/17 21:38:30;;;;;;;84.43;21.98;;;-2.40;99.90;;;;;;5112051;28;20048;-74
2022/12/17 21:41:04;;;;;;;93.95;24.20;;;-2.40;99.90;;;;;;5111996;28;20167;-73
2022/12/17 21:43:30;;;;;;;87.40;21.60;;;-2.40;99.90;;;;;;5112633;28;20123;-72
2022/12/17 21:45:56;;;;;;;84.97;21.02;;;-2.40;99.90;;;;;;5113229;28;20399;-73
2022/12/17 21:48:23;;;;;;;85.63;22.15;;;-2.40;99.90;;;;;;5111878;28;20043;-73
2022/12/17 21:50:48;;;;;;;83.95;21.95;;;-2.30;99.90;;;;;;5113393;28;20051;-73
2022/12/17 21:53:15;;;;;;;90.57;23.90;;;-2.30;99.90;;;;;;5095055;28;20130;-77
2022/12/17 21:55:40;;;;;;;90.90;24.08;;;-2.30;99.90;;;;;;5113173;28;20043;-73
2022/12/17 21:58:07;;;;;;;90.07;21.33;;;-2.30;99.90;;;;;;5111754;28;20051;-74
2022/12/17 22:00:33;;;;;;;92.40;22.30;;;-2.20;99.90;;;;;;5095052;28;20058;-73
2022/12/17 22:02:59;;;;;;;91.00;23.67;;;-2.30;99.90;;;;;;5111884;28;20076;-73
2022/12/17 22:05:25;;;;;;;82.97;21.67;;;-2.40;99.90;;;;;;5111480;28;20055;-79
2022/12/17 22:07:51;;;;;;;91.55;23.60;;;-2.30;99.90;;;;;;5112666;28;20044;-74
2022/12/17 22:10:17;;;;;;;86.90;24.17;;;-2.30;99.90;;;;;;5111564;28;20058;-73
2022/12/17 22:15:27;;;;;;;81.25;19.95;;;-2.40;99.90;;;;;;5112747;28;20116;-74
2022/12/17 22:17:54;;;;;;;89.10;21.17;;;-2.40;99.90;;;;;;5112032;28;20044;-73
2022/12/17 22:20:20;;;;;;;50.85;15.60;;;-2.40;99.90;;;;;;5112036;28;20365;-73
2022/12/17 22:22:45;;;;;;;75.47;19.15;;;-2.30;99.90;;;;;;5111511;28;20054;-74
2022/12/17 22:25:12;;;;;;;71.35;18.20;;;-2.40;99.90;;;;;;5111420;28;20083;-74
2022/12/17 22:27:39;;;;;;;68.60;19.52;;;-2.50;99.90;;;;;;5111777;28;20047;-73
2022/12/17 22:33:02;;;;;;;83.35;20.88;;;-2.70;99.90;;;;;;5133550;28;20043;-74
2022/12/17 22:35:36;;;;;;;71.60;19.88;;;-2.80;99.90;;;;;;5133802;27;20035;-78
2022/12/17 22:38:04;;;;;;;80.95;21.90;;;-2.80;99.90;;;;;;5118872;27;20547;-73
2022/12/17 22:40:36;;;;;;;83.63;22.23;;;-2.80;99.90;;;;;;5137182;27;20051;-74
2022/12/17 22:45:46;;;;;;;81.50;20.90;;;-2.90;99.90;;;;;;5137325;27;20047;-74
2022/12/17 22:48:13;;;;;;;88.07;21.77;;;-2.80;99.90;;;;;;5101549;27;20325;-72
2022/12/17 22:50:40;;;;;;;95.05;22.42;;;-2.80;99.90;;;;;;5136836;27;20047;-75
2022/12/17 22:53:05;;;;;;;95.60;21.55;;;-2.80;99.90;;;;;;5137329;27;20042;-74
2022/12/17 22:55:32;;;;;;;82.13;22.63;;;-2.70;99.90;;;;;;5137110;27;20409;-73
2022/12/17 22:57:58;;;;;;;93.38;22.77;;;-2.70;99.90;;;;;;5136652;27;20073;-72
2022/12/17 23:00:30;;;;;;;93.55;23.45;;;-2.70;99.90;;;;;;5136712;27;20483;-74
2022/12/17 23:02:56;;;;;;;91.40;23.15;;;-2.70;99.90;;;;;;5118821;27;20066;-73
2022/12/17 23:05:23;;;;;;;90.57;22.52;;;-2.80;99.90;;;;;;5118082;27;20043;-72
2022/12/17 23:07:50;;;;;;;90.10;21.33;;;-2.90;99.90;;;;;;5118266;27;20047;-74
2022/12/17 23:10:16;;;;;;;70.25;18.67;;;-2.80;99.90;;;;;;5136357;27;20043;-73
2022/12/17 23:12:52;;;;;;;75.05;19.55;;;-2.80;99.90;;;;;;5136430;27;20050;-72
2022/12/17 23:15:32;;;;;;;68.55;18.23;;;-2.80;99.90;;;;;;5117700;27;20517;-73
2022/12/17 23:18:00;;;;;;;76.40;19.80;;;-2.90;99.90;;;;;;5136985;27;20051;-71
2022/12/17 23:20:28;;;;;;;74.38;19.80;;;-3.00;99.90;;;;;;5136350;27;20054;-72
2022/12/17 23:22:54;;;;;;;74.85;19.65;;;-3.00;99.90;;;;;;5136268;27;20087;-74
2022/12/17 23:25:21;;;;;;;81.22;23.00;;;-3.00;99.90;;;;;;5117253;27;20483;-74
2022/12/17 23:27:47;;;;;;;71.75;20.13;;;-3.00;99.90;;;;;;5136085;27;20043;-74
2022/12/17 23:30:15;;;;;;;73.07;19.27;;;-3.00;99.90;;;;;;5100230;27;20127;-73
2022/12/17 23:32:41;;;;;;;75.30;20.02;;;-3.10;99.90;;;;;;5135899;27;20058;-73
2022/12/17 23:35:08;;;;;;;71.85;19.05;;;-3.20;99.90;;;;;;5136315;27;20059;-75
2022/12/17 23:37:33;;;;;;;91.10;22.35;;;-3.10;99.90;;;;;;5135865;27;20054;-73
2022/12/17 23:39:59;;;;;;;80.78;21.58;;;-3.10;99.90;;;;;;5084384;27;20379;-72
2022/12/17 23:42:25;;;;;;;86.50;22.73;;;-3.10;99.90;;;;;;5136137;27;20043;-72
2022/12/17 23:44:50;;;;;;;83.88;20.95;;;-3.10;99.90;;;;;;5117271;27;20080;-73
2022/12/17 23:47:16;;;;;;;85.50;21.98;;;-3.10;99.90;;;;;;5135070;27;20046;-73
2022/12/17 23:49:42;;;;;;;92.50;23.35;;;-3.10;99.90;;;;;;5117186;27;20055;-74
2022/12/17 23:52:08;;;;;;;85.68;21.88;;;-3.10;99.90;;;;;;5135657;27;20055;-75
2022/12/17 23:54:33;;;;;;;98.05;23.70;;;-3.10;99.90;;;;;;5100059;27;20501;-72
2022/12/17 23:56:59;;;;;;;100.20;25.75;;;-3.00;99.90;;;;;;5117500;27;20086;-73
2022/12/17 23:59:25;;;;;;;82.60;21.75;;;-3.10;99.90;;;;;;5135629;27;20053;-71
